Time;durP1;ratioP1;P1;durP2;ratioP2;P2;SDS_P1;SDS_P2;PMS_P1;PMS_P2;Temp;Humidity;BMP_temperature;BMP_pressure;BME280_temperature;BME280_humidity;BME280_pressure;Samples;Min_cycle;Max_cycle;Signal;HPM_P1;HPM_P2
2023/05/14 00:00:51;;;;;;;89.68;56.10;;;11.80;90.30;;;;;;5002319;28;20053;-73
2023/05/14 00:03:17;;;;;;;86.47;54.72;;;11.80;90.20;;;;;;5002301;28;20034;-74
2023/05/14 00:05:43;;;;;;;82.15;56.95;;;11.70;90.10;;;;;;5002682;28;20026;-73
2023/05/14 00:08:09;;;;;;;82.55;56.63;;;11.70;90.30;;;;;;4997973;28;20045;-73
2023/05/14 00:10:35;;;;;;;76.63;53.85;;;11.70;90.30;;;;;;5002343;28;20522;-73
2023/05/14 00:13:01;;;;;;;86.10;57.35;;;11.70;90.40;;;;;;5001033;28;20529;-73
2023/05/14 00:15:27;;;;;;;89.03;57.63;;;11.70;90.30;;;;;;5003102;28;20821;-73
2023/05/14 00:17:53;;;;;;;87.50;57.10;;;11.70;90.30;;;;;;5000119;28;20433;-73
2023/05/14 00:20:18;;;;;;;90.68;58.13;;;11.80;90.30;;;;;;5001861;28;20036;-74
2023/05/14 00:22:44;;;;;;;88.70;59.10;;;11.80;90.30;;;;;;5000299;28;20475;-73
2023/05/14 00:25:10;;;;;;;88.55;58.97;;;11.80;90.30;;;;;;4998073;28;20080;-74
2023/05/14 00:27:37;;;;;;;84.18;56.78;;;11.90;90.30;;;;;;5002731;28;20435;-73
2023/05/14 00:30:08;;;;;;;87.65;57.80;;;11.80;90.20;;;;;;4999478;28;20258;-74
2023/05/14 00:32:34;;;;;;;87.82;57.22;;;11.80;90.10;;;;;;4997865;28;20045;-74
2023/05/14 00:35:02;;;;;;;86.50;57.42;;;11.80;90.10;;;;;;5000501;28;20026;-74
2023/05/14 00:37:27;;;;;;;85.45;55.78;;;11.80;90.20;;;;;;5001688;28;20490;-73
2023/05/14 00:39:53;;;;;;;83.35;57.05;;;11.80;90.30;;;;;;4984527;28;20030;-74
2023/05/14 00:42:19;;;;;;;87.18;57.92;;;11.70;90.20;;;;;;5001224;28;20096;-74
2023/05/14 00:44:45;;;;;;;84.80;57.83;;;11.70;90.20;;;;;;5001547;28;20101;-73
2023/05/14 00:47:11;;;;;;;81.63;56.25;;;11.70;90.30;;;;;;5001139;28;20044;-74
2023/05/14 00:49:39;;;;;;;88.03;57.30;;;11.80;90.40;;;;;;4999429;28;20877;-74
2023/05/14 00:52:06;;;;;;;92.88;59.03;;;11.80;90.40;;;;;;5001097;28;20050;-74
2023/05/14 00:54:33;;;;;;;92.72;57.20;;;11.70;90.20;;;;;;4986883;28;20036;-74
2023/05/14 00:56:59;;;;;;;87.13;57.10;;;11.70;90.40;;;;;;4985036;28;20068;-74
2023/05/14 00:59:25;;;;;;;80.50;57.25;;;11.70;90.40;;;;;;5001115;28;20022;-74
2023/05/14 01:01:51;;;;;;;92.55;57.35;;;11.80;90.30;;;;;;4999037;28;20050;-74
2023/05/14 01:04:17;;;;;;;85.75;59.78;;;11.70;90.30;;;;;;5002442;28;20022;-74
2023/05/14 01:06:50;;;;;;;91.43;59.13;;;11.60;90.30;;;;;;5000714;28;20037;-74
2023/05/14 01:09:31;;;;;;;86.90;59.72;;;11.70;90.40;;;;;;5003890;28;20029;-74
2023/05/14 01:12:20;;;;;;;86.72;55.08;;;11.60;90.40;;;;;;5005691;28;20034;-74
2023/05/14 01:14:51;;;;;;;87.50;58.70;;;11.70;90.30;;;;;;5005884;28;20116;-73
2023/05/14 01:17:19;;;;;;;90.47;60.60;;;11.60;90.50;;;;;;5005095;28;20410;-73
2023/05/14 01:19:47;;;;;;;89.72;60.35;;;11.70;90.50;;;;;;4988310;28;20593;-74
2023/05/14 01:22:13;;;;;;;93.72;60.63;;;11.60;90.40;;;;;;5002179;28;20026;-74
2023/05/14 01:24:39;;;;;;;97.22;60.60;;;11.70;90.50;;;;;;5002495;28;20042;-75
2023/05/14 01:27:24;;;;;;;98.72;60.60;;;11.70;90.50;;;;;;5005107;28;20026;-73
2023/05/14 01:30:19;;;;;;;86.93;60.47;;;11.80;90.40;;;;;;5005521;28;20088;-72
2023/05/14 01:32:50;;;;;;;84.72;60.13;;;11.70;90.40;;;;;;4969779;28;20192;-73
2023/05/14 01:35:18;;;;;;;87.70;60.20;;;11.70;90.40;;;;;;5005210;28;20021;-74
2023/05/14 01:37:46;;;;;;;92.70;59.40;;;11.70;90.30;;;;;;5004843;28;20030;-74
2023/05/14 01:40:12;;;;;;;89.75;58.83;;;11.70;90.30;;;;;;5004752;28;20034;-74
2023/05/14 01:42:39;;;;;;;91.63;59.15;;;11.70;90.30;;;;;;5004887;28;20040;-75
2023/05/14 01:45:05;;;;;;;89.40;57.42;;;11.70;90.50;;;;;;5004665;28;20498;-74
2023/05/14 01:47:31;;;;;;;89.60;57.47;;;11.60;90.60;;;;;;5004007;28;20041;-74
2023/05/14 01:49:57;;;;;;;92.35;60.00;;;11.60;90.80;;;;;;4988116;28;20018;-74
2023/05/14 01:52:23;;;;;;;89.72;59.10;;;11.60;90.80;;;;;;5002492;28;20124;-74
2023/05/14 01:54:48;;;;;;;87.75;57.97;;;11.60;90.80;;;;;;5008294;28;20387;-72
2023/05/14 01:57:14;;;;;;;87.65;58.72;;;11.70;91.00;;;;;;5002547;28;20033;-74
2023/05/14 01:59:40;;;;;;;97.32;61.42;;;11.60;90.90;;;;;;5004608;28;20072;-75
2023/05/14 02:02:05;;;;;;;96.20;60.50;;;11.70;91.00;;;;;;5006900;28;20702;-74
2023/05/14 02:04:31;;;;;;;92.88;59.95;;;11.60;90.90;;;;;;5005513;28;20415;-75
2023/05/14 02:06:56;;;;;;;100.22;60.92;;;11.60;90.90;;;;;;4995862;28;20037;-74
2023/05/14 02:09:23;;;;;;;98.72;60.20;;;11.60;91.00;;;;;;5004841;28;20419;-74
2023/05/14 02:11:48;;;;;;;91.75;60.55;;;11.60;91.00;;;;;;5002100;28;20041;-74
2023/05/14 02:14:14;;;;;;;97.80;58.70;;;11.60;90.90;;;;;;4985523;28;20332;-74
2023/05/14 02:16:40;;;;;;;87.32;60.05;;;11.60;91.00;;;;;;5004043;28;20030;-74
2023/05/14 02:19:06;;;;;;;91.95;59.67;;;11.70;91.10;;;;;;5000821;28;20161;-75
2023/05/14 02:21:32;;;;;;;90.70;61.20;;;11.60;91.10;;;;;;5002953;28;20030;-74
2023/05/14 02:23:57;;;;;;;82.95;57.78;;;11.70;91.00;;;;;;5004150;28;20053;-74
2023/05/14 02:26:23;;;;;;;94.97;61.33;;;11.60;91.00;;;;;;5001049;28;20429;-74
2023/05/14 02:28:49;;;;;;;94.63;57.97;;;11.60;91.00;;;;;;4999705;28;20520;-74
2023/05/14 02:31:16;;;;;;;86.43;57.88;;;11.60;91.00;;;;;;4998859;28;20459;-75
2023/05/14 02:33:42;;;;;;;85.70;58.05;;;11.60;90.90;;;;;;5003314;28;20025;-74
2023/05/14 02:36:07;;;;;;;87.20;58.75;;;11.60;90.90;;;;;;5003032;28;20072;-74
2023/05/14 02:38:33;;;;;;;87.95;57.38;;;11.60;91.00;;;;;;5004216;28;20030;-74
2023/05/14 02:40:59;;;;;;;92.65;59.10;;;11.60;91.00;;;;;;4999271;28;20030;-74
2023/05/14 02:43:24;;;;;;;87.75;58.10;;;11.60;91.10;;;;;;5000189;28;20030;-74
2023/05/14 02:45:50;;;;;;;93.05;59.60;;;11.60;90.90;;;;;;4999462;28;20029;-74
2023/05/14 02:48:16;;;;;;;88.78;57.30;;;11.60;90.90;;;;;;5002141;28;20174;-74
2023/05/14 02:50:41;;;;;;;85.10;57.28;;;11.60;91.00;;;;;;4983601;28;20065;-75
2023/05/14 02:53:07;;;;;;;86.88;58.83;;;11.60;91.00;;;;;;5003067;28;20040;-74
2023/05/14 02:55:33;;;;;;;77.60;56.28;;;11.60;90.90;;;;;;5002267;28;20026;-74
2023/05/14 02:57:59;;;;;;;88.28;57.55;;;11.60;90.80;;;;;;5005471;28;20038;-74
2023/05/14 03:00:25;;;;;;;83.57;56.58;;;11.60;90.80;;;;;;4958233;28;1188346;-74
2023/05/14 03:02:50;;;;;;;76.93;54.47;;;11.60;90.70;;;;;;5002837;28;20462;-74
2023/05/14 03:05:16;;;;;;;82.88;56.22;;;11.60;90.70;;;;;;5004038;28;20034;-74
2023/05/14 03:07:41;;;;;;;82.88;55.10;;;11.60;90.50;;;;;;5003173;28;20049;-75
2023/05/14 03:10:07;;;;;;;89.30;56.42;;;11.60;90.50;;;;;;5002046;28;20095;-74
2023/05/14 03:12:33;;;;;;;86.60;59.83;;;11.60;90.50;;;;;;5003756;28;20117;-74
2023/05/14 03:14:59;;;;;;;83.97;54.40;;;11.60;90.50;;;;;;5003898;28;20140;-74
2023/05/14 03:17:24;;;;;;;85.93;58.40;;;11.70;90.50;;;;;;5004154;28;20038;-74
2023/05/14 03:19:50;;;;;;;88.97;56.85;;;11.60;90.50;;;;;;5002567;28;20033;-74
2023/05/14 03:22:16;;;;;;;83.43;55.67;;;11.60;90.50;;;;;;5004062;28;20125;-75
2023/05/14 03:24:41;;;;;;;85.90;54.95;;;11.60;90.40;;;;;;5001648;28;20080;-74
2023/05/14 03:27:07;;;;;;;81.60;55.47;;;11.60;90.40;;;;;;5003619;28;20034;-75
2023/05/14 03:29:33;;;;;;;83.05;54.42;;;11.60;90.40;;;;;;5001591;28;20116;-75
2023/05/14 03:31:58;;;;;;;86.22;57.63;;;11.50;90.50;;;;;;5002797;28;20489;-74
2023/05/14 03:34:24;;;;;;;84.47;57.47;;;11.50;90.60;;;;;;5000927;28;20368;-74
2023/05/14 03:36:50;;;;;;;81.07;56.25;;;11.50;90.60;;;;;;4985340;28;20050;-75
2023/05/14 03:39:18;;;;;;;83.55;56.53;;;11.50;90.60;;;;;;5003061;28;20088;-75
2023/05/14 03:41:45;;;;;;;86.35;58.03;;;11.50;90.70;;;;;;4997805;28;20076;-75
2023/05/14 03:44:11;;;;;;;87.72;57.50;;;11.50;90.60;;;;;;5003484;28;20049;-74
2023/05/14 03:46:37;;;;;;;86.90;57.42;;;11.50;90.50;;;;;;5002464;28;20176;-75
2023/05/14 03:49:02;;;;;;;95.10;58.58;;;11.50;90.40;;;;;;4998621;28;20210;-74
2023/05/14 03:51:28;;;;;;;88.63;58.70;;;11.40;90.50;;;;;;4989056;28;20848;-75
2023/05/14 03:53:54;;;;;;;90.32;59.58;;;11.40;90.50;;;;;;5001613;28;20022;-75
2023/05/14 03:56:20;;;;;;;84.70;55.80;;;11.40;90.40;;;;;;4997481;28;20045;-73
2023/05/14 03:58:45;;;;;;;93.40;59.45;;;11.40;90.40;;;;;;5002504;28;20091;-73
2023/05/14 04:01:11;;;;;;;83.45;57.72;;;11.40;90.50;;;;;;4999402;28;20775;-73
2023/05/14 04:03:36;;;;;;;86.45;58.22;;;11.50;90.40;;;;;;4983558;28;20069;-73
2023/05/14 04:06:02;;;;;;;87.63;56.25;;;11.50;90.40;;;;;;4984221;28;20475;-73
2023/05/14 04:08:28;;;;;;;89.55;59.22;;;11.50;90.40;;;;;;5001874;28;20117;-74
2023/05/14 04:10:54;;;;;;;89.57;55.97;;;11.50;90.50;;;;;;5002368;28;20129;-74
2023/05/14 04:13:19;;;;;;;83.13;57.17;;;11.50;90.30;;;;;;5001941;28;20142;-74
2023/05/14 04:15:45;;;;;;;85.18;56.95;;;11.40;90.30;;;;;;5001713;28;20455;-74
2023/05/14 04:18:11;;;;;;;82.45;57.63;;;11.40;90.30;;;;;;5001908;28;20030;-75
2023/05/14 04:20:36;;;;;;;87.45;57.00;;;11.40;90.40;;;;;;5002786;28;20030;-74
2023/05/14 04:23:02;;;;;;;87.93;56.67;;;11.30;90.50;;;;;;5001084;28;20034;-74
2023/05/14 04:25:28;;;;;;;88.07;56.92;;;11.30;90.60;;;;;;5002713;28;20108;-75
2023/05/14 04:27:54;;;;;;;86.50;57.20;;;11.30;90.50;;;;;;5001675;28;20032;-75
2023/05/14 04:30:19;;;;;;;83.25;55.28;;;11.20;90.50;;;;;;5001865;28;20045;-75
2023/05/14 04:32:45;;;;;;;81.00;56.03;;;11.20;90.60;;;;;;5000575;28;20026;-73
2023/05/14 04:35:11;;;;;;;82.88;56.72;;;11.30;90.70;;;;;;5001376;28;20025;-73
2023/05/14 04:37:37;;;;;;;88.38;56.53;;;11.30;90.70;;;;;;5002155;28;20414;-72
2023/05/14 04:40:05;;;;;;;79.13;53.80;;;11.20;90.60;;;;;;5003152;28;20022;-74
2023/05/14 04:42:31;;;;;;;80.07;52.65;;;11.30;90.50;;;;;;4982492;28;20030;-74
2023/05/14 04:44:57;;;;;;;81.20;54.17;;;11.30;90.50;;;;;;5002354;28;20029;-74
2023/05/14 04:47:23;;;;;;;77.18;54.50;;;11.30;90.40;;;;;;4983813;28;20053;-75
2023/05/14 04:49:49;;;;;;;79.07;55.67;;;11.30;90.40;;;;;;5001861;28;20102;-75
2023/05/14 04:52:15;;;;;;;73.88;53.20;;;11.30;90.50;;;;;;4999873;28;20064;-74
2023/05/14 04:54:40;;;;;;;80.20;54.13;;;11.40;90.50;;;;;;5001698;28;20026;-74
2023/05/14 04:57:06;;;;;;;76.65;50.97;;;11.40;90.50;;;;;;4997713;28;20399;-74
2023/05/14 04:59:31;;;;;;;71.35;50.47;;;11.30;90.40;;;;;;5002373;28;20438;-74
2023/05/14 05:01:57;;;;;;;74.70;51.50;;;11.30;90.40;;;;;;4999485;28;20070;-74
2023/05/14 05:04:23;;;;;;;70.45;48.85;;;11.30;90.40;;;;;;5000078;28;20037;-74
2023/05/14 05:06:49;;;;;;;70.63;49.47;;;11.30;90.30;;;;;;4981811;28;20117;-73
2023/05/14 05:09:16;;;;;;;67.45;47.63;;;11.30;90.30;;;;;;5003288;28;20452;-74
2023/05/14 05:11:42;;;;;;;69.78;47.72;;;11.30;90.30;;;;;;4998275;28;20243;-73
2023/05/14 05:14:07;;;;;;;62.95;47.72;;;11.30;90.10;;;;;;5003256;28;20293;-74
2023/05/14 05:16:33;;;;;;;65.63;47.22;;;11.30;90.00;;;;;;5000244;28;20061;-73
2023/05/14 05:18:59;;;;;;;65.25;47.78;;;11.30;90.10;;;;;;5003054;28;20030;-73
2023/05/14 05:21:25;;;;;;;65.25;46.28;;;11.30;90.10;;;;;;5000668;28;20056;-75
2023/05/14 05:23:50;;;;;;;63.38;46.22;;;11.40;90.00;;;;;;5000367;28;20022;-74
2023/05/14 05:26:16;;;;;;;63.10;44.33;;;11.40;89.90;;;;;;4997229;28;20081;-75
2023/05/14 05:28:41;;;;;;;66.05;44.85;;;11.40;89.90;;;;;;4984287;28;20034;-75
2023/05/14 05:31:07;;;;;;;67.22;44.95;;;11.40;89.70;;;;;;4999842;28;20573;-74
2023/05/14 05:33:33;;;;;;;66.15;47.65;;;11.30;89.80;;;;;;4997189;28;20088;-74
2023/05/14 05:35:59;;;;;;;70.95;48.67;;;11.40;89.90;;;;;;5000179;28;20065;-74
2023/05/14 05:38:25;;;;;;;69.65;47.83;;;11.40;89.80;;;;;;5000552;28;20068;-73
2023/05/14 05:40:51;;;;;;;69.07;49.50;;;11.40;89.70;;;;;;4998588;28;20499;-74
2023/05/14 05:43:17;;;;;;;74.78;51.33;;;11.40;89.70;;;;;;5000314;28;20030;-74
2023/05/14 05:45:42;;;;;;;75.75;52.35;;;11.40;89.90;;;;;;4997158;28;20084;-74
2023/05/14 05:48:08;;;;;;;78.03;51.17;;;11.40;89.60;;;;;;5000737;28;20036;-74
2023/05/14 05:50:34;;;;;;;73.35;52.17;;;11.50;89.50;;;;;;5000610;28;20049;-74
2023/05/14 05:52:59;;;;;;;72.60;51.03;;;11.50;89.40;;;;;;4994511;28;20462;-73
2023/05/14 05:55:25;;;;;;;69.13;51.45;;;11.60;89.50;;;;;;5002439;28;20026;-74
2023/05/14 05:57:51;;;;;;;72.22;50.95;;;11.60;89.50;;;;;;5002366;28;20038;-74
2023/05/14 06:00:17;;;;;;;70.20;51.08;;;11.60;89.40;;;;;;5000176;28;20422;-74
2023/05/14 06:02:43;;;;;;;68.32;51.60;;;11.60;89.20;;;;;;5003832;28;20034;-75
2023/05/14 06:05:10;;;;;;;63.75;48.60;;;11.60;89.20;;;;;;5002613;28;20394;-75
2023/05/14 06:07:36;;;;;;;62.35;47.42;;;11.60;89.10;;;;;;5002939;28;20120;-74
2023/05/14 06:10:02;;;;;;;62.78;48.30;;;11.60;88.80;;;;;;5003033;28;20072;-74
2023/05/14 06:12:27;;;;;;;62.42;46.25;;;11.60;88.90;;;;;;5003273;28;20061;-74
2023/05/14 06:14:56;;;;;;;62.80;46.00;;;11.70;88.70;;;;;;5004494;28;20395;-73
2023/05/14 06:17:22;;;;;;;59.47;45.10;;;11.70;88.60;;;;;;5002632;28;20046;-74
2023/05/14 06:19:48;;;;;;;61.67;45.30;;;11.90;88.60;;;;;;5002989;28;20034;-73
2023/05/14 06:22:14;;;;;;;57.28;45.05;;;11.90;88.20;;;;;;5003671;28;20465;-74
2023/05/14 06:24:39;;;;;;;57.67;43.08;;;11.90;87.80;;;;;;5002508;28;20467;-74
2023/05/14 06:27:05;;;;;;;58.75;42.53;;;11.90;87.90;;;;;;5004402;28;20073;-73
2023/05/14 06:29:31;;;;;;;56.63;44.13;;;11.90;87.80;;;;;;5003351;28;20364;-74
2023/05/14 06:32:01;;;;;;;55.80;44.58;;;11.80;87.70;;;;;;5001930;28;20042;-74
2023/05/14 06:34:26;;;;;;;55.72;43.50;;;11.90;87.90;;;;;;5002369;28;20080;-73
2023/05/14 06:36:52;;;;;;;53.35;43.10;;;11.90;87.70;;;;;;5003133;28;20185;-74
2023/05/14 06:39:18;;;;;;;55.75;42.92;;;11.80;87.10;;;;;;5002952;28;20095;-74
2023/05/14 06:41:43;;;;;;;53.95;43.45;;;11.80;87.40;;;;;;5003260;28;20500;-73
2023/05/14 06:44:09;;;;;;;56.53;45.00;;;11.80;87.10;;;;;;4999785;28;20072;-74
2023/05/14 06:46:35;;;;;;;57.45;45.65;;;11.90;87.20;;;;;;5003183;28;20074;-74
2023/05/14 06:49:01;;;;;;;57.67;45.03;;;11.90;87.10;;;;;;5002138;28;20036;-74
2023/05/14 06:51:27;;;;;;;56.70;46.45;;;11.90;87.10;;;;;;5003917;28;20050;-74
2023/05/14 06:53:53;;;;;;;53.40;42.78;;;11.90;87.00;;;;;;5002437;28;20064;-73
2023/05/14 06:56:20;;;;;;;57.97;46.75;;;11.90;87.20;;;;;;5000442;28;20457;-74
2023/05/14 06:58:46;;;;;;;61.88;44.75;;;11.80;87.30;;;;;;5002545;28;20084;-74
2023/05/14 07:01:12;;;;;;;59.95;47.75;;;11.80;87.70;;;;;;5000533;28;20084;-73
2023/05/14 07:03:38;;;;;;;60.90;45.67;;;11.80;87.60;;;;;;5001775;28;20091;-74
2023/05/14 07:06:04;;;;;;;61.85;47.72;;;11.80;87.50;;;;;;4997414;28;20101;-73
2023/05/14 07:08:29;;;;;;;60.90;47.50;;;11.80;87.80;;;;;;5002669;28;20033;-74
2023/05/14 07:10:56;;;;;;;58.78;46.88;;;11.80;87.70;;;;;;4999775;28;20053;-73
2023/05/14 07:13:22;;;;;;;63.47;48.53;;;11.80;87.80;;;;;;4999730;28;20028;-73
2023/05/14 07:15:48;;;;;;;59.13;46.45;;;11.80;87.60;;;;;;5001562;28;20076;-72
2023/05/14 07:18:13;;;;;;;57.08;46.80;;;11.90;87.40;;;;;;5001460;28;20383;-74
2023/05/14 07:20:39;;;;;;;58.15;45.22;;;11.70;87.50;;;;;;5001984;28;20034;-74
2023/05/14 07:23:05;;;;;;;58.67;46.65;;;11.90;87.60;;;;;;5000055;28;20038;-74
2023/05/14 07:25:31;;;;;;;56.17;43.08;;;11.90;87.40;;;;;;4998291;28;20103;-74
2023/05/14 07:27:57;;;;;;;55.17;43.47;;;11.90;86.90;;;;;;5000027;28;20026;-73
2023/05/14 07:30:22;;;;;;;56.42;44.97;;;11.80;86.90;;;;;;5003153;28;20155;-74
2023/05/14 07:32:48;;;;;;;54.65;44.10;;;11.80;87.30;;;;;;4996136;28;20129;-78
2023/05/14 07:35:14;;;;;;;55.60;44.15;;;11.90;87.30;;;;;;5003056;28;20026;-76
2023/05/14 07:37:40;;;;;;;53.65;43.47;;;12.00;86.80;;;;;;4999727;28;20077;-78
2023/05/14 07:40:06;;;;;;;61.38;44.35;;;11.90;86.60;;;;;;5001254;28;20030;-79
2023/05/14 07:42:31;;;;;;;54.53;43.88;;;12.00;86.70;;;;;;5000696;28;20029;-79
2023/05/14 07:44:57;;;;;;;52.05;41.45;;;12.00;86.50;;;;;;5001938;28;20056;-76
2023/05/14 07:47:23;;;;;;;55.05;42.95;;;12.00;86.20;;;;;;4999908;28;20030;-79
2023/05/14 07:49:52;;;;;;;50.80;41.30;;;12.10;86.40;;;;;;5000327;28;20410;-80
2023/05/14 07:52:18;;;;;;;47.60;39.55;;;12.20;86.20;;;;;;5002062;28;20114;-78
2023/05/14 07:54:43;;;;;;;41.97;34.95;;;12.20;85.60;;;;;;4998794;28;20774;-77
2023/05/14 07:57:09;;;;;;;42.15;34.38;;;12.30;84.90;;;;;;5002513;28;20037;-79
2023/05/14 07:59:35;;;;;;;41.13;35.65;;;12.30;84.50;;;;;;4986334;28;20061;-77
2023/05/14 08:02:00;;;;;;;41.85;34.40;;;12.40;85.00;;;;;;4998417;28;20096;-76
2023/05/14 08:04:32;;;;;;;42.17;33.22;;;12.30;84.20;;;;;;5002195;28;20129;-79
2023/05/14 08:06:58;;;;;;;38.95;32.50;;;12.40;84.80;;;;;;5001030;28;20037;-76
2023/05/14 08:09:23;;;;;;;45.13;36.80;;;12.60;84.40;;;;;;4999281;28;20030;-77
2023/05/14 08:11:49;;;;;;;44.38;34.80;;;12.50;84.70;;;;;;4993704;28;20053;-77
2023/05/14 08:14:15;;;;;;;42.05;33.70;;;12.50;84.60;;;;;;5002379;28;20475;-77
2023/05/14 08:16:40;;;;;;;37.72;31.75;;;12.50;84.40;;;;;;4999818;28;20034;-78
2023/05/14 08:19:06;;;;;;;38.72;31.90;;;12.60;84.10;;;;;;5000410;28;20026;-77
2023/05/14 08:21:31;;;;;;;43.25;33.33;;;12.60;84.30;;;;;;4996802;28;20073;-76
2023/05/14 08:23:57;;;;;;;36.08;31.20;;;12.70;83.80;;;;;;5001453;28;20236;-78
2023/05/14 08:26:23;;;;;;;36.28;31.42;;;12.70;83.60;;;;;;5001851;28;20037;-77
2023/05/14 08:28:48;;;;;;;37.15;31.15;;;12.90;83.80;;;;;;5001655;28;20030;-77
2023/05/14 08:31:14;;;;;;;34.28;29.58;;;12.90;82.90;;;;;;4980497;28;20049;-79
2023/05/14 08:33:40;;;;;;;37.53;30.73;;;13.00;82.90;;;;;;4997013;28;20030;-79
2023/05/14 08:36:06;;;;;;;37.13;31.02;;;13.10;81.90;;;;;;4995151;28;20091;-78
2023/05/14 08:38:32;;;;;;;38.90;31.00;;;13.20;82.00;;;;;;5000928;28;20084;-77
2023/05/14 08:40:59;;;;;;;35.88;31.58;;;13.10;82.50;;;;;;5000777;28;20063;-77
2023/05/14 08:43:44;;;;;;;35.47;31.17;;;13.30;81.90;;;;;;4979622;28;20026;-77
2023/05/14 08:46:13;;;;;;;33.33;29.50;;;13.50;81.90;;;;;;4998000;28;20041;-79
2023/05/14 08:48:41;;;;;;;35.97;30.17;;;13.80;81.10;;;;;;5000368;28;20025;-78
2023/05/14 08:51:07;;;;;;;36.45;29.67;;;13.70;79.30;;;;;;4999278;28;20042;-78
2023/05/14 08:53:33;;;;;;;33.33;28.23;;;13.80;80.30;;;;;;5000163;28;20097;-79
2023/05/14 08:56:00;;;;;;;32.42;28.50;;;13.80;80.00;;;;;;4999444;28;20057;-76
2023/05/14 08:58:27;;;;;;;37.20;29.02;;;13.70;79.10;;;;;;5001360;28;20022;-78
2023/05/14 09:00:53;;;;;;;32.25;27.30;;;13.80;79.10;;;;;;4999756;28;20054;-81
2023/05/14 09:03:20;;;;;;;31.92;26.95;;;14.30;79.80;;;;;;4982991;28;20509;-78
2023/05/14 09:05:50;;;;;;;33.28;27.15;;;14.60;77.00;;;;;;4998061;28;20064;-80
2023/05/14 09:08:15;;;;;;;31.85;27.05;;;14.90;77.00;;;;;;4999874;28;20037;-79
2023/05/14 09:10:41;;;;;;;28.40;24.42;;;15.30;77.00;;;;;;5002101;28;20041;-78
2023/05/14 09:13:08;;;;;;;27.38;24.48;;;15.80;75.50;;;;;;5000169;28;20110;-79
2023/05/14 09:15:35;;;;;;;28.83;25.77;;;15.80;73.90;;;;;;5000344;28;20022;-77
2023/05/14 09:18:04;;;;;;;33.55;25.48;;;15.40;74.40;;;;;;5001285;28;20131;-82
2023/05/14 09:20:31;;;;;;;27.48;23.20;;;14.90;75.50;;;;;;5000874;28;20081;-77
2023/05/14 09:22:58;;;;;;;28.13;23.90;;;14.90;75.60;;;;;;4998951;28;20049;-78
2023/05/14 09:25:30;;;;;;;27.40;23.58;;;15.10;75.30;;;;;;4999236;28;20037;-78
2023/05/14 09:27:57;;;;;;;27.05;23.52;;;15.20;74.20;;;;;;4985233;28;20097;-80
2023/05/14 09:30:24;;;;;;;26.00;23.10;;;15.10;75.00;;;;;;5003449;28;20038;-80
2023/05/14 09:32:52;;;;;;;27.92;22.70;;;15.50;74.80;;;;;;5003806;28;20034;-81
2023/05/14 09:35:23;;;;;;;27.80;22.65;;;15.50;73.40;;;;;;4999019;28;20113;-80
2023/05/14 09:37:51;;;;;;;27.77;22.80;;;15.50;75.00;;;;;;4999191;28;20108;-76
2023/05/14 09:40:19;;;;;;;26.55;22.95;;;15.90;73.60;;;;;;5003389;28;20061;-78
2023/05/14 09:42:45;;;;;;;25.63;22.40;;;16.00;72.20;;;;;;5004294;28;20076;-78
2023/05/14 09:45:11;;;;;;;27.90;23.48;;;15.70;73.20;;;;;;5001598;28;20037;-80
2023/05/14 09:47:38;;;;;;;25.95;21.27;;;15.80;74.20;;;;;;5004347;28;20034;-77
2023/05/14 09:50:05;;;;;;;28.90;22.90;;;15.90;73.10;;;;;;5002520;28;20109;-76
2023/05/14 09:52:31;;;;;;;26.08;22.75;;;16.10;73.20;;;;;;5000723;28;20069;-78
2023/05/14 09:54:57;;;;;;;28.92;23.27;;;16.30;72.20;;;;;;5002737;28;20539;-78
2023/05/14 09:57:23;;;;;;;29.13;23.95;;;16.60;71.80;;;;;;5002364;28;20049;-77
2023/05/14 09:59:48;;;;;;;25.95;22.40;;;16.60;71.80;;;;;;5001809;28;20028;-78
2023/05/14 10:02:25;;;;;;;27.45;24.48;;;16.60;70.40;;;;;;5001688;28;20776;-78
2023/05/14 10:04:53;;;;;;;27.15;23.88;;;16.80;71.70;;;;;;5001266;28;20093;-78
2023/05/14 10:07:25;;;;;;;28.27;24.90;;;17.10;70.80;;;;;;5004486;28;20045;-79
2023/05/14 10:09:56;;;;;;;28.27;22.75;;;16.90;71.60;;;;;;5001800;28;20732;-79
2023/05/14 10:12:23;;;;;;;28.00;23.13;;;16.90;71.30;;;;;;5000457;28;20216;-78
2023/05/14 10:14:52;;;;;;;26.05;22.95;;;16.90;70.70;;;;;;4998415;28;20088;-77
2023/05/14 10:17:20;;;;;;;25.60;22.75;;;16.70;71.90;;;;;;4997539;28;20030;-77
2023/05/14 10:19:57;;;;;;;24.25;21.65;;;16.60;72.00;;;;;;4979683;28;20593;-78
2023/05/14 10:22:29;;;;;;;23.60;21.05;;;16.80;71.20;;;;;;4997741;28;20060;-77
2023/05/14 10:24:55;;;;;;;25.50;22.65;;;17.10;70.00;;;;;;4998985;28;20447;-79
2023/05/14 10:27:21;;;;;;;26.10;22.40;;;17.20;69.80;;;;;;4998699;28;20077;-78
2023/05/14 10:29:54;;;;;;;25.15;22.50;;;17.10;69.80;;;;;;4985599;28;20046;-77
2023/05/14 10:32:23;;;;;;;24.88;22.30;;;17.20;69.60;;;;;;5000414;28;20166;-77
2023/05/14 10:34:49;;;;;;;29.83;25.08;;;17.60;69.20;;;;;;5002154;28;20041;-77
2023/05/14 10:37:20;;;;;;;29.15;24.80;;;17.50;68.10;;;;;;5002004;28;20061;-77
2023/05/14 10:39:56;;;;;;;27.25;24.45;;;17.60;70.40;;;;;;4986335;28;20131;-76
2023/05/14 10:42:25;;;;;;;25.60;22.88;;;17.60;68.90;;;;;;5002847;28;20048;-79
2023/05/14 10:45:04;;;;;;;26.05;22.75;;;17.70;68.40;;;;;;5004553;28;20390;-78
2023/05/14 10:47:31;;;;;;;25.70;21.63;;;18.20;67.90;;;;;;5002380;28;20038;-77
2023/05/14 10:50:02;;;;;;;23.35;20.90;;;18.20;66.30;;;;;;5003086;28;20025;-77
2023/05/14 10:52:28;;;;;;;24.40;19.98;;;17.80;65.50;;;;;;5002497;28;20402;-79
2023/05/14 10:54:59;;;;;;;25.40;21.35;;;17.90;65.30;;;;;;5004632;28;20704;-78
2023/05/14 10:57:29;;;;;;;22.48;19.40;;;18.10;66.00;;;;;;5004167;28;20044;-76
2023/05/14 10:59:56;;;;;;;23.30;19.20;;;18.00;67.00;;;;;;5002894;28;20097;-77
2023/05/14 11:02:26;;;;;;;24.02;20.52;;;18.00;64.80;;;;;;5002746;28;20528;-78
2023/05/14 11:04:55;;;;;;;21.52;19.02;;;18.10;65.40;;;;;;4994146;28;20030;-78
2023/05/14 11:07:27;;;;;;;23.55;21.05;;;18.40;65.80;;;;;;5002764;28;20046;-78
2023/05/14 11:09:55;;;;;;;25.30;22.67;;;18.60;65.80;;;;;;5000627;28;20391;-80
2023/05/14 11:12:21;;;;;;;23.63;21.05;;;18.60;65.30;;;;;;5001528;28;20041;-77
2023/05/14 11:14:46;;;;;;;25.92;22.33;;;18.70;64.70;;;;;;5000193;28;20030;-77
2023/05/14 11:17:13;;;;;;;20.10;17.98;;;18.80;65.50;;;;;;5002961;28;20097;-79
2023/05/14 11:19:42;;;;;;;24.85;21.60;;;18.80;65.00;;;;;;5002367;28;20100;-77
2023/05/14 11:22:08;;;;;;;26.27;22.70;;;18.90;66.20;;;;;;5001478;28;20040;-77
2023/05/14 11:24:33;;;;;;;26.35;22.88;;;18.90;66.10;;;;;;5002227;28;20026;-77
2023/05/14 11:26:59;;;;;;;28.23;22.35;;;19.20;65.90;;;;;;5002875;28;20064;-75
2023/05/14 11:29:25;;;;;;;25.55;22.65;;;19.40;67.20;;;;;;5002491;28;20061;-75
2023/05/14 11:31:50;;;;;;;24.42;21.92;;;19.20;65.40;;;;;;5002407;28;20049;-75
2023/05/14 11:34:16;;;;;;;24.83;22.25;;;19.40;66.60;;;;;;5001602;28;20026;-79
2023/05/14 11:36:42;;;;;;;22.17;16.92;;;19.60;65.90;;;;;;4997756;28;20308;-79
2023/05/14 11:39:08;;;;;;;19.13;16.88;;;19.70;63.30;;;;;;5000992;28;20028;-78
2023/05/14 11:41:33;;;;;;;19.80;17.08;;;20.00;62.90;;;;;;5001987;28;20048;-78
2023/05/14 11:43:59;;;;;;;18.52;14.88;;;19.90;61.10;;;;;;5002328;28;20038;-81
2023/05/14 11:46:25;;;;;;;19.88;16.33;;;19.70;60.90;;;;;;5001258;28;20037;-77
2023/05/14 11:48:50;;;;;;;18.35;16.45;;;19.80;60.80;;;;;;5002234;28;20410;-80
2023/05/14 11:51:16;;;;;;;18.15;15.70;;;19.70;60.90;;;;;;4999401;28;20128;-78
2023/05/14 11:53:44;;;;;;;20.02;17.25;;;19.70;61.50;;;;;;5000611;28;20057;-79
2023/05/14 11:56:10;;;;;;;23.30;18.55;;;19.60;61.50;;;;;;5002539;28;20108;-77
2023/05/14 11:58:35;;;;;;;23.45;18.88;;;19.50;64.20;;;;;;4999514;28;20034;-79
2023/05/14 12:01:01;;;;;;;24.75;18.27;;;19.70;63.60;;;;;;5000554;28;20498;-78
2023/05/14 12:03:29;;;;;;;24.33;19.13;;;19.70;63.10;;;;;;4999384;28;20470;-78
2023/05/14 12:05:56;;;;;;;23.55;19.42;;;19.90;63.10;;;;;;5002642;28;20041;-77
2023/05/14 12:08:30;;;;;;;20.75;17.75;;;19.80;62.30;;;;;;5000056;28;20110;-77
2023/05/14 12:10:57;;;;;;;22.33;19.42;;;19.80;63.00;;;;;;5002625;28;20049;-76
2023/05/14 12:13:30;;;;;;;18.92;16.73;;;20.20;62.60;;;;;;5002294;28;20467;-77
2023/05/14 12:16:01;;;;;;;23.05;18.83;;;20.10;61.40;;;;;;5001454;28;20033;-77
2023/05/14 12:18:28;;;;;;;23.80;19.98;;;20.10;61.00;;;;;;5000595;28;20030;-80
2023/05/14 12:20:54;;;;;;;24.52;18.85;;;20.10;63.30;;;;;;5000154;28;20029;-77
2023/05/14 12:23:30;;;;;;;21.25;16.92;;;20.10;61.70;;;;;;5002289;28;20044;-77